Le Grand, CA (95333)

2:13 AM PST on March 06, 2015 (GMT -0800)
Northeast Merced | Change Station
CLOSE
Current Station
Personal Weather Station
Location: Merced, CA
Elevation: 154 ft
Nearby Weather Stations

Elev 154 ft 37.32 °N, 120.45 °W | Updated 7 seconds ago

Clear
Clear
41.4 °F
Feels Like 41 °F
N
0.0
Wind Variable Wind from ENE
Gusts 0.0 mph

Today
High -- | Low -- °F
--% Chance of Precip.
Yesterday
High -- | Low -- °F
Precip. -- in
6:25 AM 5:59 PM
Full, 100% visible
Pressure 30.28 in
Visibility 8.0 miles
Clouds Clear
Windchill 41 °F
Dew Point 34 °F
Humidity 76%
Rainfall in
Snow Depth Not available.
UV 0 out of 12
Pollen 7.60 out of 12
Air Quality Not available.
Flu Activity Not available.
METAR KMCE 060953Z AUTO 00000KT 8SM CLR 03/02 A3028 RMK AO2 SLP254 T00330022

More Conditions Fewer Conditions

Pressure 30.28 in
Visibility 8.0 miles
Clouds Clear
Windchill 41 °F
Dew Point 34 °F
Humidity 76%
Rainfall in
Snow Depth Not available.
UV 0 out of 12
Pollen 7.60 out of 12
Air Quality Not available.
Flu Activity Not available.
METAR KMCE 060953Z AUTO 00000KT 8SM CLR 03/02 A3028 RMK AO2 SLP254 T00330022

More Conditions Fewer Conditions

10-Day Weather Forecast

Almanac

Astronomy

Mar. 06, 2015 Rise Set
Actual Time
Civil Twilight
Nautical Twilight
Astronomical Twilight
Moon
Length of Visible Light
Length of Day
Tomorrow will be .
, % of the Moon is Illuminated

Today's Extremes

State Highs State Lows

Community

WunderPhotos

Upload Photos

1,803,216 photos uploaded!

WunderBlogs® & News

Nearby

Air Quality

  Air Quality AQ Index Pollutant
Not available.

Snow Depth

Station Depth Elevation

Earthquake Activity

City Distance Mag. Time & Date
Minimum magnitude displayed is 2.5.

Coastal Water Temperatures

Place Temperature

Nearby Weather Stations